Time;durP1;ratioP1;P1;durP2;ratioP2;P2;SDS_P1;SDS_P2;PMS_P1;PMS_P2;Temp;Humidity;BMP_temperature;BMP_pressure;BME280_temperature;BME280_humidity;BME280_pressure;Samples;Min_cycle;Max_cycle;Signal;HPM_P1;HPM_P2
2022/09/03 00:00:00;;;;;;;2.60;1.10;;;;;;;13.78;70.36;100131.81;10529943;28;20181;-70
2022/09/03 00:05:20;;;;;;;2.97;1.15;;;;;;;13.98;70.73;100137.06;10547034;28;20109;-71
2022/09/03 00:10:28;;;;;;;1.88;1.30;;;;;;;14.05;69.50;100130.59;10547630;28;20043;-70
2022/09/03 00:15:33;;;;;;;1.58;1.02;;;;;;;13.90;70.34;100126.00;10545980;28;20036;-71
2022/09/03 00:20:42;;;;;;;1.85;1.10;;;;;;;13.70;72.04;100118.06;10528097;28;20116;-71
2022/09/03 00:26:00;;;;;;;1.20;1.10;;;;;;;13.89;70.59;100111.91;10546327;28;20473;-70
2022/09/03 00:31:11;;;;;;;2.25;0.98;;;;;;;13.75;71.30;100105.50;10545958;28;20458;-71
2022/09/03 00:36:23;;;;;;;1.10;1.00;;;;;;;13.69;72.14;100108.44;10546041;28;20094;-71
2022/09/03 00:41:58;;;;;;;1.48;1.10;;;;;;;13.56;72.83;100103.69;10545001;22;20116;-70
2022/09/03 00:47:23;;;;;;;2.22;0.93;;;;;;;13.51;72.96;100104.81;10404349;28;20052;-70
2022/09/03 00:52:38;;;;;;;1.40;0.90;;;;;;;13.47;73.14;100104.06;10459915;28;20494;-70
2022/09/03 00:57:49;;;;;;;2.85;1.10;;;;;;;13.30;73.49;100096.00;10459743;28;20410;-70
2022/09/03 01:03:11;;;;;;;1.33;1.15;;;;;;;12.88;74.77;100104.69;10424898;28;20051;-71
2022/09/03 01:08:25;;;;;;;1.65;1.20;;;;;;;12.69;76.46;100099.31;10459478;28;20047;-70
2022/09/03 01:13:41;;;;;;;1.33;1.00;;;;;;;12.66;76.72;100107.38;10441232;28;20110;-70
2022/09/03 01:19:15;;;;;;;2.47;1.20;;;;;;;12.66;76.94;100102.09;10459222;28;20033;-70
2022/09/03 01:24:40;;;;;;;1.88;1.10;;;;;;;12.50;77.40;100106.22;10408661;28;20052;-70
2022/09/03 01:29:56;;;;;;;1.63;1.27;;;;;;;12.30;78.25;100099.91;10441175;28;20049;-69
2022/09/03 01:35:18;;;;;;;1.63;1.13;;;;;;;12.28;79.44;100108.81;10458252;28;20119;-70
2022/09/03 01:40:56;;;;;;;1.90;1.27;;;;;;;12.56;77.99;100112.09;10458564;28;20051;-69
2022/09/03 01:46:04;;;;;;;2.20;1.17;;;;;;;12.20;79.63;100124.06;10457942;28;20064;-70
2022/09/03 01:51:11;;;;;;;1.65;1.25;;;;;;;11.99;81.50;100120.41;10440216;28;20552;-69
2022/09/03 01:56:34;;;;;;;1.80;1.30;;;;;;;11.98;82.19;100113.44;10440098;28;20055;-70
2022/09/03 02:01:45;;;;;;;2.55;1.40;;;;;;;11.94;81.98;100114.47;10457613;28;20043;-70
2022/09/03 02:06:47;;;;;;;2.13;1.10;;;;;;;11.97;82.74;100112.59;10456827;28;20040;-70
2022/09/03 02:11:58;;;;;;;1.23;1.10;;;;;;;12.40;80.81;100112.78;10456964;28;20048;-70
2022/09/03 02:17:01;;;;;;;1.70;1.45;;;;;;;12.33;79.71;100113.00;10438957;28;20102;-70
2022/09/03 02:22:04;;;;;;;1.30;1.13;;;;;;;12.09;80.18;100106.88;10457483;28;20056;-71
2022/09/03 02:27:05;;;;;;;1.90;1.30;;;;;;;12.08;79.78;100107.75;10456903;28;20155;-70
2022/09/03 02:32:07;;;;;;;3.35;1.77;;;;;;;12.00;80.48;100109.84;10457237;28;20067;-71
2022/09/03 02:37:17;;;;;;;3.95;1.33;;;;;;;11.81;81.26;100114.00;10457048;28;20051;-70
2022/09/03 02:42:19;;;;;;;2.70;1.20;;;;;;;11.74;81.25;100116.00;10439344;28;20102;-70
2022/09/03 02:47:27;;;;;;;1.73;1.23;;;;;;;11.60;82.39;100116.50;10456555;28;20053;-71
2022/09/03 02:52:29;;;;;;;2.63;1.20;;;;;;;11.61;82.34;100117.34;10439093;28;20049;-71
2022/09/03 02:57:30;;;;;;;2.55;1.13;;;;;;;11.49;83.07;100110.72;10456176;28;20041;-71
2022/09/03 03:02:32;;;;;;;2.75;1.20;;;;;;;11.34;84.08;100112.13;10460668;28;20045;-71
2022/09/03 03:07:57;;;;;;;1.63;1.10;;;;;;;11.28;84.79;100112.31;10464730;28;20049;-71
2022/09/03 03:12:59;;;;;;;2.35;1.20;;;;;;;11.57;83.11;100099.94;10378015;28;20515;-71
2022/09/03 03:18:01;;;;;;;2.05;1.38;;;;;;;11.15;85.55;100096.97;10377672;28;20061;-71
2022/09/03 03:23:04;;;;;;;1.40;1.20;;;;;;;11.01;87.13;100093.03;10377423;28;20061;-70
2022/09/03 03:28:06;;;;;;;1.88;1.20;;;;;;;11.08;86.65;100097.19;10377604;28;20054;-71
2022/09/03 03:33:09;;;;;;;1.40;1.25;;;;;;;11.47;84.62;100095.91;10361691;28;20543;-70
2022/09/03 03:38:10;;;;;;;2.53;1.38;;;;;;;11.25;84.70;100101.03;10377264;28;20569;-70
2022/09/03 03:43:12;;;;;;;1.52;1.20;;;;;;;11.20;84.97;100109.09;10376443;28;20054;-70
2022/09/03 03:48:14;;;;;;;4.15;1.48;;;;;;;11.08;85.58;100110.34;10404815;28;20057;-69
2022/09/03 03:53:16;;;;;;;2.42;1.20;;;;;;;10.81;87.34;100104.19;10444705;28;20479;-70
2022/09/03 03:58:18;;;;;;;1.92;1.40;;;;;;;10.99;87.35;100107.16;10445264;28;20111;-70
2022/09/03 04:03:20;;;;;;;3.85;1.58;;;;;;;10.96;86.63;100108.09;10461801;28;20499;-70
2022/09/03 04:08:22;;;;;;;1.45;1.30;;;;;;;10.72;88.07;100095.75;10461998;28;20037;-70
2022/09/03 04:13:28;;;;;;;1.70;1.30;;;;;;;10.60;88.98;100094.34;10460375;28;20574;-69
2022/09/03 04:18:31;;;;;;;1.90;1.23;;;;;;;10.68;87.91;100094.97;10461817;28;20410;-69
2022/09/03 04:23:34;;;;;;;1.40;1.30;;;;;;;10.42;89.78;100093.16;10461752;28;20498;-69
2022/09/03 04:28:37;;;;;;;3.00;1.50;;;;;;;10.60;88.32;100091.72;10461581;28;20069;-69
2022/09/03 04:33:39;;;;;;;3.78;1.50;;;;;;;10.56;88.23;100090.94;10461709;28;20045;-69
2022/09/03 04:38:43;;;;;;;2.08;1.58;;;;;;;10.53;88.16;100095.44;10461617;28;20047;-69
2022/09/03 04:43:47;;;;;;;1.45;1.30;;;;;;;10.42;89.12;100092.28;10460593;28;20128;-69
2022/09/03 04:48:53;;;;;;;2.00;1.40;;;;;;;10.48;87.89;100092.94;10444377;28;20056;-69
2022/09/03 04:53:57;;;;;;;3.40;1.48;;;;;;;10.59;86.87;100095.28;10461007;28;20049;-69
2022/09/03 04:59:05;;;;;;;3.65;1.40;;;;;;;10.41;88.15;100104.56;10442351;28;20117;-69
2022/09/03 05:04:08;;;;;;;1.58;1.45;;;;;;;10.39;88.74;100105.50;10460009;28;20144;-69
2022/09/03 05:09:09;;;;;;;3.22;1.33;;;;;;;10.54;87.56;100105.94;10441316;28;20045;-69
2022/09/03 05:14:11;;;;;;;3.80;1.73;;;;;;;10.29;89.79;100099.69;10442515;28;20047;-69
2022/09/03 05:19:13;;;;;;;2.05;1.30;;;;;;;10.34;90.36;100105.66;10460125;28;20076;-69
2022/09/03 05:24:15;;;;;;;3.65;1.58;;;;;;;10.43;89.80;100100.13;10440967;28;20063;-69
2022/09/03 05:29:18;;;;;;;2.35;1.42;;;;;;;10.64;89.71;100097.75;10458795;28;20041;-69
2022/09/03 05:34:20;;;;;;;2.58;1.20;;;;;;;10.81;88.25;100098.94;10459287;28;20083;-70
2022/09/03 05:39:22;;;;;;;2.65;1.73;;;;;;;11.16;86.67;100103.97;10458839;28;20124;-69
2022/09/03 05:44:24;;;;;;;1.80;1.33;;;;;;;11.47;83.65;100109.94;10457724;28;20565;-70
2022/09/03 05:49:25;;;;;;;2.50;1.52;;;;;;;11.59;83.75;100106.84;10458199;28;20550;-69
2022/09/03 05:54:27;;;;;;;2.05;1.13;;;;;;;11.77;82.04;100101.84;10424801;28;20064;-69
2022/09/03 05:59:29;;;;;;;2.17;1.40;;;;;;;11.90;82.98;100100.53;10458171;28;20041;-69
2022/09/03 06:04:31;;;;;;;1.33;1.23;;;;;;;12.85;76.16;100107.50;10458684;28;20523;-69
2022/09/03 06:09:33;;;;;;;4.53;1.48;;;;;;;14.25;68.45;100105.03;10439620;28;20076;-70
2022/09/03 06:14:35;;;;;;;1.23;1.10;;;;;;;14.59;66.06;100113.16;10457465;28;20056;-70
2022/09/03 06:19:37;;;;;;;1.77;1.30;;;;;;;14.55;65.11;100114.22;10457282;28;20041;-70
2022/09/03 06:24:39;;;;;;;1.30;1.00;;;;;;;14.82;64.65;100121.78;10457837;28;20044;-70
2022/09/03 06:29:41;;;;;;;3.92;1.17;;;;;;;15.11;63.90;100117.75;10439179;28;20402;-70
2022/09/03 06:34:43;;;;;;;2.08;1.35;;;;;;;15.27;62.78;100126.66;10456268;28;20053;-69
2022/09/03 06:39:45;;;;;;;1.10;0.80;;;;;;;14.96;63.53;100123.75;10447193;28;20048;-68
2022/09/03 06:44:47;;;;;;;2.38;1.00;;;;;;;14.82;64.09;100122.63;10482936;22;20064;-72
2022/09/03 06:49:49;;;;;;;2.88;1.00;;;;;;;14.71;64.45;100113.53;10474076;28;20052;-72
2022/09/03 06:54:51;;;;;;;2.63;1.48;;;;;;;14.77;63.39;100118.50;10511321;28;20064;-72
2022/09/03 06:59:54;;;;;;;1.70;1.08;;;;;;;15.10;61.81;100123.97;10509779;28;20045;-72
2022/09/03 07:04:56;;;;;;;1.65;1.00;;;;;;;15.06;62.06;100114.47;10509787;28;20040;-72
2022/09/03 07:09:57;;;;;;;1.90;1.00;;;;;;;15.08;61.76;100116.09;10507966;28;20451;-71
2022/09/03 07:14:59;;;;;;;2.83;1.17;;;;;;;15.18;61.51;100107.69;10506280;28;20053;-71
2022/09/03 07:20:01;;;;;;;1.98;0.80;;;;;;;15.57;61.17;100099.53;10507767;28;20044;-71
2022/09/03 07:25:03;;;;;;;4.03;1.00;;;;;;;15.64;59.17;100101.81;10507198;28;20049;-72
2022/09/03 07:30:08;;;;;;;1.65;1.08;;;;;;;15.85;58.61;100096.38;10509379;28;20051;-72
2022/09/03 07:35:10;;;;;;;1.30;1.00;;;;;;;16.20;55.90;100091.81;10508889;28;20063;-71
2022/09/03 07:40:12;;;;;;;1.73;0.80;;;;;;;16.31;55.93;100084.13;10509997;28;20068;-73
2022/09/03 07:45:14;;;;;;;0.82;0.68;;;;;;;16.46;55.08;100079.78;10508038;28;20048;-72
2022/09/03 07:50:16;;;;;;;1.08;0.90;;;;;;;16.70;53.43;100087.31;10507585;28;20068;-74
2022/09/03 07:55:17;;;;;;;2.00;0.80;;;;;;;16.67;54.15;100084.84;10506588;28;20127;-73
2022/09/03 08:00:19;;;;;;;3.00;1.10;;;;;;;16.77;53.17;100083.41;10506748;28;20112;-72
2022/09/03 08:05:21;;;;;;;1.08;0.85;;;;;;;17.13;51.82;100080.44;10487311;28;20147;-74
2022/09/03 08:10:23;;;;;;;1.58;0.80;;;;;;;17.30;50.97;100077.66;10505838;28;20072;-74
2022/09/03 08:15:25;;;;;;;2.83;1.30;;;;;;;17.51;50.08;100077.31;10505478;28;20041;-73
2022/09/03 08:20:27;;;;;;;1.45;1.00;;;;;;;17.84;48.69;100082.44;10487561;28;20055;-74
2022/09/03 08:25:30;;;;;;;2.28;0.80;;;;;;;17.98;47.56;100077.16;10506087;28;20072;-73
2022/09/03 08:30:33;;;;;;;8.05;3.33;;;;;;;18.00;48.14;100071.72;10506951;28;20082;-73
2022/09/03 08:35:38;;;;;;;1.83;1.00;;;;;;;18.21;47.10;100073.03;10491824;28;20211;-73
2022/09/03 08:40:41;;;;;;;42.70;7.53;;;;;;;18.65;45.99;100070.22;10509041;28;20119;-74
2022/09/03 08:45:44;;;;;;;5.97;2.25;;;;;;;18.91;45.79;100073.03;10494096;28;20143;-72
2022/09/03 08:50:51;;;;;;;0.98;0.88;;;;;;;19.12;44.22;100074.28;10491950;28;20040;-72
2022/09/03 08:56:00;;;;;;;11.88;1.60;;;;;;;19.37;44.69;100057.47;10508832;28;20090;-71
2022/09/03 09:01:33;;;;;;;4.13;1.08;;;;;;;19.64;43.03;100059.25;10509197;28;20546;-71
2022/09/03 09:06:50;;;;;;;1.52;0.75;;;;;;;19.84;43.61;100047.22;10491999;28;20048;-72
2022/09/03 09:11:54;;;;;;;2.03;1.00;;;;;;;20.28;42.27;100044.06;10512556;28;20036;-74
2022/09/03 12:01:56;;;;;;;1.23;0.77;;;;;;;24.24;35.42;99932.63;10622029;27;20104;-71
2022/09/03 12:07:38;;;;;;;2.03;0.90;;;;;;;24.12;35.17;99935.44;10605811;28;20039;-72
2022/09/03 12:13:32;;;;;;;2.92;1.20;;;;;;;24.24;33.57;99935.31;10623020;28;20448;-72
2022/09/03 12:18:35;;;;;;;1.17;1.00;;;;;;;23.74;34.78;99936.19;10532275;28;20054;-72
2022/09/03 12:23:43;;;;;;;3.50;1.08;;;;;;;23.78;35.01;99942.13;10514031;28;20052;-73
2022/09/03 12:28:48;;;;;;;2.60;0.90;;;;;;;23.69;35.34;99933.06;10513971;28;20048;-71
2022/09/03 12:33:59;;;;;;;4.40;1.10;;;;;;;23.34;35.67;99933.41;10531610;28;20048;-71
2022/09/03 12:39:12;;;;;;;2.92;0.80;;;;;;;23.00;36.38;99922.91;10530801;28;20048;-73
2022/09/03 12:44:14;;;;;;;2.63;0.95;;;;;;;22.63;37.02;99925.97;10529201;22;20044;-67
2022/09/03 12:49:15;;;;;;;2.95;1.02;;;;;;;22.89;36.98;99918.47;10492158;28;20131;-66
2022/09/03 12:54:39;;;;;;;1.25;0.73;;;;;;;23.16;36.09;99909.03;10491818;28;20043;-67
2022/09/03 12:59:41;;;;;;;1.95;0.90;;;;;;;23.39;35.92;99907.03;10491247;28;20044;-67
2022/09/03 13:04:44;;;;;;;1.83;0.80;;;;;;;23.59;34.89;99900.75;10491046;28;20048;-67
2022/09/03 13:09:46;;;;;;;1.70;0.80;;;;;;;23.57;35.17;99899.22;10482780;28;20487;-66
2022/09/03 13:14:49;;;;;;;3.05;0.95;;;;;;;23.69;35.79;99897.31;10463259;28;20049;-67
2022/09/03 13:20:15;;;;;;;0.80;0.68;;;;;;;23.58;35.19;99904.44;10446332;28;20406;-67
2022/09/03 13:25:41;;;;;;;1.05;1.00;;;;;;;23.56;34.42;99902.88;10463415;28;20051;-66
2022/09/03 13:31:05;;;;;;;1.90;0.90;;;;;;;23.23;36.15;99899.47;10462893;28;20045;-67
2022/09/03 13:36:17;;;;;;;2.63;0.87;;;;;;;23.26;36.35;99890.31;10445291;28;20044;-68
2022/09/03 13:41:53;;;;;;;1.77;1.13;;;;;;;22.91;37.44;99892.38;10461543;28;20661;-67
2022/09/03 13:47:00;;;;;;;0.95;0.73;;;;;;;22.93;36.95;99884.19;10461281;28;20045;-68
2022/09/03 13:52:10;;;;;;;1.10;0.70;;;;;;;23.11;36.32;99877.25;10443954;28;20048;-66
2022/09/03 13:57:36;;;;;;;1.60;0.80;;;;;;;22.89;36.60;99877.38;10461029;28;20490;-67
2022/09/03 14:03:09;;;;;;;2.38;1.20;;;;;;;22.95;36.85;99876.03;10461117;28;20044;-67
2022/09/03 14:08:16;;;;;;;2.45;0.90;;;;;;;23.16;36.20;99867.00;10461431;28;20052;-66
2022/09/03 14:13:29;;;;;;;2.38;1.00;;;;;;;23.05;36.95;99859.00;10461171;28;20044;-67
2022/09/03 14:18:58;;;;;;;0.93;0.77;;;;;;;23.12;37.07;99867.38;10460653;28;20037;-67
2022/09/03 14:24:09;;;;;;;1.27;0.70;;;;;;;23.13;37.85;99866.41;10459628;28;20453;-68
2022/09/03 14:29:10;;;;;;;1.42;0.70;;;;;;;23.12;35.91;99867.38;10459856;28;20033;-67
2022/09/03 14:34:53;;;;;;;1.45;0.75;;;;;;;22.89;36.42;99866.66;10459090;28;20053;-67
2022/09/03 14:39:57;;;;;;;1.35;0.60;;;;;;;23.20;36.36;99869.38;10459504;28;20401;-68
2022/09/03 14:45:28;;;;;;;0.88;0.73;;;;;;;23.37;35.63;99868.75;10458803;28;20395;-68
2022/09/03 14:50:55;;;;;;;2.47;0.82;;;;;;;23.40;36.35;99865.81;10459251;28;20045;-68
2022/09/03 14:56:09;;;;;;;0.73;0.70;;;;;;;23.40;35.02;99861.28;10441245;28;20048;-67
2022/09/03 15:01:16;;;;;;;1.13;0.60;;;;;;;23.25;36.13;99865.34;10458615;28;20041;-68
2022/09/03 15:06:51;;;;;;;1.02;0.70;;;;;;;23.17;37.01;99862.47;10441624;28;20379;-68
2022/09/03 15:12:01;;;;;;;1.23;0.80;;;;;;;23.09;36.31;99871.16;10458522;28;20037;-68
2022/09/03 15:17:13;;;;;;;1.92;0.60;;;;;;;22.99;36.88;99872.09;10459439;28;20447;-66
2022/09/03 15:22:36;;;;;;;0.90;0.60;;;;;;;22.67;36.05;99865.81;10457819;28;20037;-67
2022/09/03 15:27:59;;;;;;;2.92;1.05;;;;;;;22.52;36.75;99860.88;10439974;28;20051;-68
2022/09/03 15:33:12;;;;;;;0.70;0.70;;;;;;;22.26;37.87;99869.25;10439358;28;20049;-68
2022/09/03 15:38:32;;;;;;;1.10;1.00;;;;;;;22.19;38.05;99861.88;10457047;28;20077;-68
2022/09/03 15:43:34;;;;;;;2.65;0.90;;;;;;;21.96;39.28;99875.31;10457159;28;20083;-68
2022/09/03 15:49:07;;;;;;;2.03;0.90;;;;;;;21.92;39.09;99868.50;10456663;28;20091;-67
2022/09/03 15:54:25;;;;;;;1.23;0.90;;;;;;;21.86;39.03;99867.16;10455655;28;20418;-67
2022/09/03 15:59:51;;;;;;;0.90;0.60;;;;;;;21.47;40.07;99876.59;10456386;28;20037;-67
2022/09/03 16:05:15;;;;;;;1.27;0.70;;;;;;;21.52;40.33;99873.53;10456120;28;20056;-68
2022/09/03 16:10:18;;;;;;;1.35;0.80;;;;;;;21.61;39.25;99875.47;10456191;28;20045;-68
2022/09/03 16:15:33;;;;;;;1.27;0.60;;;;;;;21.58;39.56;99873.03;10456471;28;20120;-68
2022/09/03 16:20:42;;;;;;;0.95;0.80;;;;;;;21.68;39.08;99876.66;10456996;28;20045;-69
2022/09/03 16:25:52;;;;;;;2.35;0.98;;;;;;;21.78;38.66;99879.44;10457412;28;20044;-68
2022/09/03 16:31:25;;;;;;;2.45;1.15;;;;;;;21.74;38.95;99867.31;10439626;28;20060;-69
2022/09/03 16:36:55;;;;;;;1.58;1.25;;;;;;;21.50;40.31;99873.63;10456682;28;20482;-69
2022/09/03 16:42:15;;;;;;;1.02;0.80;;;;;;;21.55;39.81;99881.28;10457302;28;20048;-67
2022/09/03 16:47:25;;;;;;;1.10;0.90;;;;;;;21.42;41.40;99884.09;10462465;28;20049;-67
2022/09/03 16:52:44;;;;;;;3.05;1.08;;;;;;;21.23;40.89;99867.78;10445920;28;20540;-67
2022/09/03 16:58:16;;;;;;;1.73;1.15;;;;;;;21.32;40.83;99867.09;10463114;28;20041;-67
2022/09/03 17:03:27;;;;;;;2.08;1.20;;;;;;;21.19;41.28;99867.16;10424954;28;20057;-67
2022/09/03 17:08:44;;;;;;;4.55;1.45;;;;;;;21.15;41.57;99863.03;10463272;28;20041;-67
2022/09/03 17:13:58;;;;;;;2.85;1.00;;;;;;;20.80;42.32;99863.09;10463480;28;20422;-69
2022/09/03 17:19:22;;;;;;;1.27;1.10;;;;;;;20.89;42.61;99865.94;10463137;28;20375;-67
2022/09/03 17:24:50;;;;;;;2.00;1.10;;;;;;;20.52;43.81;99859.03;10444810;28;20049;-67
2022/09/03 17:30:01;;;;;;;1.10;1.00;;;;;;;20.41;43.23;99862.47;10461932;28;20041;-67
2022/09/03 17:35:03;;;;;;;1.20;1.10;;;;;;;20.22;44.80;99878.16;10462001;28;20410;-67
2022/09/03 17:40:18;;;;;;;1.90;1.40;;;;;;;19.93;44.72;99872.31;10462188;28;20041;-70
2022/09/03 17:45:39;;;;;;;2.80;1.30;;;;;;;19.74;45.77;99872.78;10462095;28;20127;-68
2022/09/03 17:51:11;;;;;;;2.50;1.30;;;;;;;19.60;47.41;99873.72;10444988;28;20528;-70
2022/09/03 17:56:29;;;;;;;2.13;1.38;;;;;;;19.37;49.27;99886.03;10419984;28;20061;-68
2022/09/03 18:01:36;;;;;;;1.70;1.33;;;;;;;19.29;50.81;99891.06;10461954;28;20037;-68
2022/09/03 18:07:04;;;;;;;3.47;1.60;;;;;;;19.03;51.77;99895.53;10460796;28;20053;-68
2022/09/03 18:12:26;;;;;;;2.33;1.90;;;;;;;19.21;50.05;99898.72;10461209;28;20047;-68
2022/09/03 18:17:42;;;;;;;2.17;1.92;;;;;;;18.95;52.08;99911.19;10459982;28;20037;-67
2022/09/03 20:19:19;;;;;;;4.00;3.60;;;;;;;17.35;64.58;99992.34;10500148;28;20055;-71
2022/09/03 20:24:27;;;;;;;4.50;4.13;;;;;;;16.99;65.15;99990.09;10506585;28;20107;-71
2022/09/03 20:29:50;;;;;;;4.88;3.75;;;;;;;16.80;65.41;99993.81;10506968;28;20075;-72
2022/09/03 20:35:31;;;;;;;4.18;3.78;;;;;;;16.75;65.65;99995.03;10506486;28;20048;-71
2022/09/03 20:41:02;;;;;;;5.05;4.65;;;;;;;16.87;66.30;99999.66;10505836;28;20037;-72
2022/09/03 20:46:17;;;;;;;4.50;4.10;;;;;;;16.95;66.58;100004.50;10506687;28;20066;-71
2022/09/03 20:51:26;;;;;;;4.93;4.45;;;;;;;17.00;66.78;100008.59;10504916;28;20049;-72
2022/09/03 20:56:55;;;;;;;5.63;4.60;;;;;;;16.85;67.38;100013.00;10504613;28;20044;-72
2022/09/03 21:02:20;;;;;;;6.43;4.20;;;;;;;16.79;68.00;100017.81;10505021;28;20066;-72
2022/09/03 21:07:42;;;;;;;5.28;4.78;;;;;;;16.60;68.80;100010.00;10506590;28;20051;-72
2022/09/03 21:12:50;;;;;;;5.22;4.72;;;;;;;16.50;68.91;100014.13;10507665;28;20036;-73
2022/09/03 21:18:02;;;;;;;5.07;4.68;;;;;;;16.52;69.12;100013.13;10489994;28;20094;-71
2022/09/03 21:23:18;;;;;;;6.80;5.25;;;;;;;16.28;69.75;100015.31;10486980;28;20037;-71
2022/09/03 21:28:30;;;;;;;5.60;4.97;;;;;;;16.42;70.42;100013.69;10486991;28;20049;-70
2022/09/03 21:33:36;;;;;;;5.35;4.68;;;;;;;16.61;68.35;100017.03;10486674;28;20048;-72
2022/09/03 21:38:38;;;;;;;;;;;;;;;16.24;70.33;100020.88;10487091;28;20059;-70
2022/09/03 21:43:53;;;;;;;5.13;4.72;;;;;;;16.20;70.29;100027.28;10502522;28;19927;-72
2022/09/03 21:48:59;;;;;;;5.28;4.78;;;;;;;16.46;69.48;100029.34;10504067;28;20045;-71
2022/09/03 21:54:11;;;;;;;7.30;6.13;;;;;;;16.37;70.23;100037.84;10503883;28;20044;-71
2022/09/03 21:59:47;;;;;;;5.70;5.10;;;;;;;16.09;70.64;100039.34;10503219;28;20036;-72
2022/09/03 22:04:49;;;;;;;;;;;;;;;16.00;71.33;100045.16;10506129;28;20059;-70
2022/09/03 22:10:02;;;;;;;5.03;4.38;;;;;;;16.17;72.76;100046.91;10503798;28;20368;-71
2022/09/03 22:15:08;;;;;;;5.57;5.05;;;;;;;16.16;71.81;100037.25;10503706;28;20045;-72
2022/09/03 22:20:13;;;;;;;;;;;;;;;15.98;72.54;100044.41;10469439;28;20055;-71
2022/09/03 22:25:23;;;;;;;5.90;5.30;;;;;;;15.85;72.62;100033.59;10504376;28;20333;-71
2022/09/03 22:30:33;;;;;;;4.88;4.43;;;;;;;15.74;72.79;100035.94;10503666;28;20086;-71
2022/09/03 22:35:59;;;;;;;4.40;4.00;;;;;;;15.76;72.62;100035.84;10502389;28;20044;-71
2022/09/03 22:41:24;;;;;;;4.78;3.90;;;;;;;15.53;72.90;100037.88;10501321;28;20036;-70
2022/09/03 22:46:40;;;;;;;5.47;4.00;;;;;;;15.83;72.31;100029.31;10500390;28;20044;-71
2022/09/03 22:51:59;;;;;;;8.07;5.38;;;;;;;15.81;72.96;100041.78;10481993;28;20040;-71
2022/09/03 22:57:02;;;;;;;4.55;4.15;;;;;;;15.54;73.35;100039.63;10483366;28;20055;-71
2022/09/03 23:02:17;;;;;;;5.05;4.57;;;;;;;15.47;74.10;100040.03;10501366;28;20044;-71
2022/09/03 23:07:30;;;;;;;4.95;4.55;;;;;;;15.31;74.21;100039.94;10501638;28;20546;-71
2022/09/03 23:12:46;;;;;;;7.70;5.30;;;;;;;15.37;74.22;100040.50;10500978;28;20508;-71
2022/09/03 23:18:05;;;;;;;4.40;4.00;;;;;;;15.34;74.86;100038.00;10482835;28;20044;-71
2022/09/03 23:23:13;;;;;;;4.40;4.10;;;;;;;15.21;74.83;100039.56;10500594;28;20494;-70
2022/09/03 23:28:18;;;;;;;4.75;4.35;;;;;;;15.67;75.28;100041.66;10500433;28;20041;-71
2022/09/03 23:33:19;;;;;;;5.32;4.50;;;;;;;15.42;74.81;100052.66;10499695;28;20048;-70
2022/09/03 23:39:15;;;;;;;4.65;4.25;;;;;;;15.30;75.69;100043.53;10498114;28;20048;-72
2022/09/03 23:44:26;;;;;;;3.92;3.63;;;;;;;15.59;73.47;100044.69;10488972;28;20052;-70
2022/09/03 23:49:42;;;;;;;4.40;4.00;;;;;;;15.72;73.55;100044.94;10499347;28;20046;-70
2022/09/03 23:54:56;;;;;;;4.18;3.78;;;;;;;15.61;73.74;100037.50;10499604;28;20070;-70
